Pushkinskiye Gory, Russia
Current Conditions -  °F | °C
As of 8:00 PM on Friday 31 Oct 2014 (Local Time) from ULOO Reporting Station
Broken Clouds Broken Clouds  
Wind Chill: 39°   Ceiling: 4000
Heat Index: 39°   Visibility: 4mi
Dew Point: 37°   Wind: 2mph
Humidity: 93%   Direction: 230°SW
Pressure: 30.18"   Gusts: NA
Location:  57.02°N, 28.93°E
Report Text: ULOO 311700Z 23001MPS 6000 BKN040 04/03 Q1022 19190060 NOSIGRMK QFE762
Loading
Personal Weather Stations






























Interactive Weather Map
Tropical Storm Tracking
New forecast layout! Learn more

10-Day Weather Forecast

Advertisements
Track Severe Weather on mobile